sensor_id;sensor_type;location;lat;lon;timestamp;P1;durP1;ratioP1;P2;durP2;ratioP2
60243;SDS011;46106;51.468;5.814;2022-09-09T00:07:07;21.70;;;7.75;;
60243;SDS011;46106;51.468;5.814;2022-09-09T00:09:55;24.48;;;7.00;;
60243;SDS011;46106;51.468;5.814;2022-09-09T00:18:27;15.48;;;6.97;;
60243;SDS011;46106;51.468;5.814;2022-09-09T00:21:18;13.90;;;6.95;;
60243;SDS011;46106;51.468;5.814;2022-09-09T00:23:55;17.30;;;6.40;;
60243;SDS011;46106;51.468;5.814;2022-09-09T00:29:21;20.17;;;7.13;;
60243;SDS011;46106;51.468;5.814;2022-09-09T00:31:55;18.70;;;6.85;;
60243;SDS011;46106;51.468;5.814;2022-09-09T00:34:28;16.08;;;6.43;;
60243;SDS011;46106;51.468;5.814;2022-09-09T00:36:56;15.70;;;7.88;;
60243;SDS011;46106;51.468;5.814;2022-09-09T00:39:32;15.48;;;7.25;;
60243;SDS011;46106;51.468;5.814;2022-09-09T00:44:55;18.50;;;6.47;;
60243;SDS011;46106;51.468;5.814;2022-09-09T00:47:35;19.95;;;7.88;;
60243;SDS011;46106;51.468;5.814;2022-09-09T00:50:35;32.22;;;7.82;;
60243;SDS011;46106;51.468;5.814;2022-09-09T00:58:52;16.17;;;8.10;;
60243;SDS011;46106;51.468;5.814;2022-09-09T01:01:34;20.25;;;8.25;;
60243;SDS011;46106;51.468;5.814;2022-09-09T01:04:02;28.20;;;8.68;;
60243;SDS011;46106;51.468;5.814;2022-09-09T01:09:21;16.48;;;8.20;;
60243;SDS011;46106;51.468;5.814;2022-09-09T01:17:19;21.43;;;8.00;;
60243;SDS011;46106;51.468;5.814;2022-09-09T01:27:56;26.65;;;8.15;;
60243;SDS011;46106;51.468;5.814;2022-09-09T01:30:27;26.63;;;8.25;;
60243;SDS011;46106;51.468;5.814;2022-09-09T01:32:59;24.45;;;8.35;;
60243;SDS011;46106;51.468;5.814;2022-09-09T01:38:10;19.65;;;8.25;;
60243;SDS011;46106;51.468;5.814;2022-09-09T01:40:41;25.35;;;8.23;;
60243;SDS011;46106;51.468;5.814;2022-09-09T01:43:12;22.95;;;8.52;;
60243;SDS011;46106;51.468;5.814;2022-09-09T01:45:38;26.20;;;9.15;;
60243;SDS011;46106;51.468;5.814;2022-09-09T01:48:06;24.50;;;8.13;;
60243;SDS011;46106;51.468;5.814;2022-09-09T01:50:34;22.48;;;8.25;;
60243;SDS011;46106;51.468;5.814;2022-09-09T01:52:59;31.17;;;8.48;;
60243;SDS011;46106;51.468;5.814;2022-09-09T02:01:42;24.20;;;9.15;;
60243;SDS011;46106;51.468;5.814;2022-09-09T02:07:00;28.42;;;8.60;;
60243;SDS011;46106;51.468;5.814;2022-09-09T02:09:26;53.45;;;11.27;;
60243;SDS011;46106;51.468;5.814;2022-09-09T02:11:57;33.47;;;8.73;;
60243;SDS011;46106;51.468;5.814;2022-09-09T02:14:33;28.13;;;9.18;;
60243;SDS011;46106;51.468;5.814;2022-09-09T02:19:36;25.98;;;8.25;;
60243;SDS011;46106;51.468;5.814;2022-09-09T02:24:35;37.30;;;8.80;;
60243;SDS011;46106;51.468;5.814;2022-09-09T02:27:11;40.08;;;10.30;;
60243;SDS011;46106;51.468;5.814;2022-09-09T02:29:43;27.08;;;9.32;;
60243;SDS011;46106;51.468;5.814;2022-09-09T02:32:15;33.13;;;9.60;;
60243;SDS011;46106;51.468;5.814;2022-09-09T02:34:45;61.40;;;12.18;;
60243;SDS011;46106;51.468;5.814;2022-09-09T02:37:36;32.13;;;8.82;;
60243;SDS011;46106;51.468;5.814;2022-09-09T02:40:04;29.13;;;9.10;;
60243;SDS011;46106;51.468;5.814;2022-09-09T02:42:38;33.72;;;10.57;;
60243;SDS011;46106;51.468;5.814;2022-09-09T02:45:19;29.95;;;10.27;;
60243;SDS011;46106;51.468;5.814;2022-09-09T02:53:16;39.08;;;10.07;;
60243;SDS011;46106;51.468;5.814;2022-09-09T02:55:54;28.40;;;10.03;;
60243;SDS011;46106;51.468;5.814;2022-09-09T02:58:23;37.17;;;10.35;;
60243;SDS011;46106;51.468;5.814;2022-09-09T03:00:51;36.58;;;11.40;;
60243;SDS011;46106;51.468;5.814;2022-09-09T03:03:27;34.50;;;10.25;;
60243;SDS011;46106;51.468;5.814;2022-09-09T03:05:55;38.97;;;9.73;;
60243;SDS011;46106;51.468;5.814;2022-09-09T03:08:22;40.70;;;9.73;;
60243;SDS011;46106;51.468;5.814;2022-09-09T03:10:49;23.27;;;9.98;;
60243;SDS011;46106;51.468;5.814;2022-09-09T03:13:22;45.17;;;11.05;;
60243;SDS011;46106;51.468;5.814;2022-09-09T03:15:52;44.25;;;10.40;;
60243;SDS011;46106;51.468;5.814;2022-09-09T03:18:21;44.42;;;10.35;;
60243;SDS011;46106;51.468;5.814;2022-09-09T03:20:48;37.55;;;11.73;;
60243;SDS011;46106;51.468;5.814;2022-09-09T03:23:14;46.25;;;10.18;;
60243;SDS011;46106;51.468;5.814;2022-09-09T03:25:45;35.25;;;10.48;;
60243;SDS011;46106;51.468;5.814;2022-09-09T03:28:12;37.83;;;9.90;;
60243;SDS011;46106;51.468;5.814;2022-09-09T03:30:38;31.75;;;10.18;;
60243;SDS011;46106;51.468;5.814;2022-09-09T03:33:03;32.47;;;10.93;;
60243;SDS011;46106;51.468;5.814;2022-09-09T03:35:28;40.00;;;10.48;;
60243;SDS011;46106;51.468;5.814;2022-09-09T03:37:55;39.05;;;10.32;;
60243;SDS011;46106;51.468;5.814;2022-09-09T03:40:23;32.78;;;9.63;;
60243;SDS011;46106;51.468;5.814;2022-09-09T03:42:50;34.50;;;9.23;;
60243;SDS011;46106;51.468;5.814;2022-09-09T03:45:18;27.48;;;8.85;;
60243;SDS011;46106;51.468;5.814;2022-09-09T03:47:46;41.13;;;10.70;;
60243;SDS011;46106;51.468;5.814;2022-09-09T03:50:13;33.55;;;8.45;;
60243;SDS011;46106;51.468;5.814;2022-09-09T03:52:40;37.70;;;9.70;;
60243;SDS011;46106;51.468;5.814;2022-09-09T03:55:15;44.45;;;9.52;;
60243;SDS011;46106;51.468;5.814;2022-09-09T03:57:42;45.80;;;9.85;;
60243;SDS011;46106;51.468;5.814;2022-09-09T04:00:10;41.22;;;10.38;;
60243;SDS011;46106;51.468;5.814;2022-09-09T04:02:39;49.92;;;10.35;;
60243;SDS011;46106;51.468;5.814;2022-09-09T04:05:06;32.17;;;8.85;;
60243;SDS011;46106;51.468;5.814;2022-09-09T04:07:38;30.50;;;7.93;;
60243;SDS011;46106;51.468;5.814;2022-09-09T04:10:08;46.85;;;10.20;;
60243;SDS011;46106;51.468;5.814;2022-09-09T04:12:35;30.73;;;8.23;;
60243;SDS011;46106;51.468;5.814;2022-09-09T04:15:07;34.05;;;10.30;;
60243;SDS011;46106;51.468;5.814;2022-09-09T04:17:33;46.55;;;8.55;;
60243;SDS011;46106;51.468;5.814;2022-09-09T04:20:01;33.00;;;9.18;;
60243;SDS011;46106;51.468;5.814;2022-09-09T04:22:28;38.83;;;9.70;;
60243;SDS011;46106;51.468;5.814;2022-09-09T04:24:54;34.13;;;8.43;;
60243;SDS011;46106;51.468;5.814;2022-09-09T04:27:20;26.30;;;9.27;;
60243;SDS011;46106;51.468;5.814;2022-09-09T04:29:47;39.20;;;9.23;;
60243;SDS011;46106;51.468;5.814;2022-09-09T04:32:13;48.13;;;8.82;;
60243;SDS011;46106;51.468;5.814;2022-09-09T04:34:38;47.28;;;8.52;;
60243;SDS011;46106;51.468;5.814;2022-09-09T04:37:14;33.60;;;8.82;;
60243;SDS011;46106;51.468;5.814;2022-09-09T04:39:40;47.88;;;8.05;;
60243;SDS011;46106;51.468;5.814;2022-09-09T04:42:05;36.35;;;8.00;;
60243;SDS011;46106;51.468;5.814;2022-09-09T04:44:32;24.77;;;7.75;;
60243;SDS011;46106;51.468;5.814;2022-09-09T04:47:01;25.33;;;7.78;;
60243;SDS011;46106;51.468;5.814;2022-09-09T04:49:26;22.60;;;7.35;;
60243;SDS011;46106;51.468;5.814;2022-09-09T04:51:54;31.70;;;7.35;;
60243;SDS011;46106;51.468;5.814;2022-09-09T04:54:29;34.65;;;7.53;;
60243;SDS011;46106;51.468;5.814;2022-09-09T04:56:57;40.05;;;7.82;;
60243;SDS011;46106;51.468;5.814;2022-09-09T04:59:24;34.97;;;7.20;;
60243;SDS011;46106;51.468;5.814;2022-09-09T05:01:51;38.03;;;7.50;;
60243;SDS011;46106;51.468;5.814;2022-09-09T05:04:17;31.02;;;7.18;;
60243;SDS011;46106;51.468;5.814;2022-09-09T05:06:48;45.95;;;8.40;;
60243;SDS011;46106;51.468;5.814;2022-09-09T05:09:13;27.40;;;7.35;;
60243;SDS011;46106;51.468;5.814;2022-09-09T05:11:39;37.45;;;7.60;;
60243;SDS011;46106;51.468;5.814;2022-09-09T05:14:04;26.63;;;6.70;;
60243;SDS011;46106;51.468;5.814;2022-09-09T05:16:31;34.47;;;7.57;;
60243;SDS011;46106;51.468;5.814;2022-09-09T05:18:58;45.97;;;7.50;;
60243;SDS011;46106;51.468;5.814;2022-09-09T05:21:24;25.60;;;7.53;;
60243;SDS011;46106;51.468;5.814;2022-09-09T05:23:56;34.80;;;8.02;;
60243;SDS011;46106;51.468;5.814;2022-09-09T05:26:27;38.72;;;7.38;;
60243;SDS011;46106;51.468;5.814;2022-09-09T05:28:54;30.55;;;7.05;;
60243;SDS011;46106;51.468;5.814;2022-09-09T05:31:21;51.65;;;8.18;;
60243;SDS011;46106;51.468;5.814;2022-09-09T05:33:54;40.67;;;9.38;;
60243;SDS011;46106;51.468;5.814;2022-09-09T05:36:22;29.67;;;7.80;;
60243;SDS011;46106;51.468;5.814;2022-09-09T05:38:51;40.47;;;8.35;;
60243;SDS011;46106;51.468;5.814;2022-09-09T05:41:19;42.33;;;7.78;;
60243;SDS011;46106;51.468;5.814;2022-09-09T05:43:47;38.00;;;7.50;;
60243;SDS011;46106;51.468;5.814;2022-09-09T05:46:14;31.08;;;7.82;;
60243;SDS011;46106;51.468;5.814;2022-09-09T05:48:46;38.60;;;8.07;;
60243;SDS011;46106;51.468;5.814;2022-09-09T05:51:15;37.60;;;7.60;;
60243;SDS011;46106;51.468;5.814;2022-09-09T05:53:43;30.92;;;8.05;;
60243;SDS011;46106;51.468;5.814;2022-09-09T05:56:11;35.05;;;8.52;;
60243;SDS011;46106;51.468;5.814;2022-09-09T05:58:44;33.90;;;8.02;;
60243;SDS011;46106;51.468;5.814;2022-09-09T06:01:17;30.10;;;7.43;;
60243;SDS011;46106;51.468;5.814;2022-09-09T06:03:52;47.88;;;8.13;;
60243;SDS011;46106;51.468;5.814;2022-09-09T06:06:20;37.90;;;8.77;;
60243;SDS011;46106;51.468;5.814;2022-09-09T06:08:52;41.58;;;7.18;;
60243;SDS011;46106;51.468;5.814;2022-09-09T06:11:23;34.85;;;8.00;;
60243;SDS011;46106;51.468;5.814;2022-09-09T06:13:55;31.23;;;7.03;;
60243;SDS011;46106;51.468;5.814;2022-09-09T06:16:21;39.13;;;8.27;;
60243;SDS011;46106;51.468;5.814;2022-09-09T06:18:50;34.15;;;7.38;;
60243;SDS011;46106;51.468;5.814;2022-09-09T06:21:20;34.72;;;7.40;;
60243;SDS011;46106;51.468;5.814;2022-09-09T06:23:49;29.58;;;7.53;;
60243;SDS011;46106;51.468;5.814;2022-09-09T06:26:18;39.92;;;6.85;;
60243;SDS011;46106;51.468;5.814;2022-09-09T06:28:46;36.05;;;6.40;;
60243;SDS011;46106;51.468;5.814;2022-09-09T06:31:16;59.25;;;8.13;;
60243;SDS011;46106;51.468;5.814;2022-09-09T06:33:49;35.25;;;9.13;;
60243;SDS011;46106;51.468;5.814;2022-09-09T06:36:17;30.15;;;7.13;;
60243;SDS011;46106;51.468;5.814;2022-09-09T06:38:44;33.80;;;6.20;;
60243;SDS011;46106;51.468;5.814;2022-09-09T06:41:15;31.52;;;6.40;;
60243;SDS011;46106;51.468;5.814;2022-09-09T06:43:44;32.28;;;7.10;;
60243;SDS011;46106;51.468;5.814;2022-09-09T06:48:38;28.90;;;6.53;;
60243;SDS011;46106;51.468;5.814;2022-09-09T06:51:10;22.70;;;4.72;;
60243;SDS011;46106;51.468;5.814;2022-09-09T06:53:40;35.10;;;6.43;;
60243;SDS011;46106;51.468;5.814;2022-09-09T06:58:41;23.25;;;6.32;;
60243;SDS011;46106;51.468;5.814;2022-09-09T07:01:13;30.52;;;6.68;;
60243;SDS011;46106;51.468;5.814;2022-09-09T07:03:41;35.60;;;5.82;;
60243;SDS011;46106;51.468;5.814;2022-09-09T07:06:20;30.42;;;5.70;;
60243;SDS011;46106;51.468;5.814;2022-09-09T07:08:49;27.33;;;6.07;;
60243;SDS011;46106;51.468;5.814;2022-09-09T07:11:16;27.35;;;6.25;;
60243;SDS011;46106;51.468;5.814;2022-09-09T07:13:46;35.70;;;6.82;;
60243;SDS011;46106;51.468;5.814;2022-09-09T07:16:13;36.47;;;7.03;;
60243;SDS011;46106;51.468;5.814;2022-09-09T07:18:41;36.47;;;6.38;;
60243;SDS011;46106;51.468;5.814;2022-09-09T07:21:09;35.80;;;6.53;;
60243;SDS011;46106;51.468;5.814;2022-09-09T07:23:39;29.15;;;6.03;;
60243;SDS011;46106;51.468;5.814;2022-09-09T07:26:15;34.53;;;5.72;;
60243;SDS011;46106;51.468;5.814;2022-09-09T07:28:47;40.28;;;6.20;;
60243;SDS011;46106;51.468;5.814;2022-09-09T07:31:18;37.13;;;6.70;;
60243;SDS011;46106;51.468;5.814;2022-09-09T07:33:46;28.17;;;5.50;;
60243;SDS011;46106;51.468;5.814;2022-09-09T07:36:13;19.70;;;4.85;;
60243;SDS011;46106;51.468;5.814;2022-09-09T07:38:46;16.17;;;5.50;;
60243;SDS011;46106;51.468;5.814;2022-09-09T07:41:18;18.58;;;4.88;;
60243;SDS011;46106;51.468;5.814;2022-09-09T07:43:49;19.73;;;5.45;;
60243;SDS011;46106;51.468;5.814;2022-09-09T07:46:16;39.53;;;6.03;;
60243;SDS011;46106;51.468;5.814;2022-09-09T07:48:47;29.80;;;4.72;;
60243;SDS011;46106;51.468;5.814;2022-09-09T07:51:18;27.88;;;4.00;;
60243;SDS011;46106;51.468;5.814;2022-09-09T07:53:57;23.48;;;4.38;;
60243;SDS011;46106;51.468;5.814;2022-09-09T07:56:27;22.85;;;3.58;;
60243;SDS011;46106;51.468;5.814;2022-09-09T07:58:55;32.53;;;3.97;;
60243;SDS011;46106;51.468;5.814;2022-09-09T08:01:24;25.80;;;4.35;;
60243;SDS011;46106;51.468;5.814;2022-09-09T08:03:55;18.83;;;3.72;;
60243;SDS011;46106;51.468;5.814;2022-09-09T08:06:24;30.25;;;3.83;;
60243;SDS011;46106;51.468;5.814;2022-09-09T08:08:52;12.40;;;3.47;;
60243;SDS011;46106;51.468;5.814;2022-09-09T08:11:20;25.25;;;3.72;;
60243;SDS011;46106;51.468;5.814;2022-09-09T08:13:48;33.25;;;3.85;;
60243;SDS011;46106;51.468;5.814;2022-09-09T08:16:18;21.92;;;3.55;;
60243;SDS011;46106;51.468;5.814;2022-09-09T08:21:17;22.05;;;3.55;;
60243;SDS011;46106;51.468;5.814;2022-09-09T08:23:45;25.35;;;3.60;;
60243;SDS011;46106;51.468;5.814;2022-09-09T08:26:19;21.70;;;3.38;;
60243;SDS011;46106;51.468;5.814;2022-09-09T08:28:50;20.38;;;3.00;;
60243;SDS011;46106;51.468;5.814;2022-09-09T08:31:20;28.25;;;3.38;;
60243;SDS011;46106;51.468;5.814;2022-09-09T08:33:47;28.48;;;3.55;;
60243;SDS011;46106;51.468;5.814;2022-09-09T08:36:16;23.55;;;3.42;;
60243;SDS011;46106;51.468;5.814;2022-09-09T08:38:50;39.05;;;4.90;;
60243;SDS011;46106;51.468;5.814;2022-09-09T08:44:31;21.13;;;3.55;;
60243;SDS011;46106;51.468;5.814;2022-09-09T08:55:22;17.50;;;2.42;;
60243;SDS011;46106;51.468;5.814;2022-09-09T08:57:57;24.90;;;3.20;;
60243;SDS011;46106;51.468;5.814;2022-09-09T09:00:31;24.00;;;2.75;;
60243;SDS011;46106;51.468;5.814;2022-09-09T09:03:19;13.98;;;2.60;;
60243;SDS011;46106;51.468;5.814;2022-09-09T09:06:06;31.77;;;3.00;;
60243;SDS011;46106;51.468;5.814;2022-09-09T09:14:28;26.42;;;2.88;;
60243;SDS011;46106;51.468;5.814;2022-09-09T09:16:57;20.73;;;2.58;;
60243;SDS011;46106;51.468;5.814;2022-09-09T09:19:23;17.70;;;2.45;;
60243;SDS011;46106;51.468;5.814;2022-09-09T09:25:37;19.38;;;2.63;;
60243;SDS011;46106;51.468;5.814;2022-09-09T09:30:19;23.10;;;2.72;;
60243;SDS011;46106;51.468;5.814;2022-09-09T09:33:00;24.30;;;4.28;;
60243;SDS011;46106;51.468;5.814;2022-09-09T09:35:33;18.67;;;2.72;;
60243;SDS011;46106;51.468;5.814;2022-09-09T09:37:58;14.85;;;2.55;;
60243;SDS011;46106;51.468;5.814;2022-09-09T09:40:26;40.53;;;5.13;;
60243;SDS011;46106;51.468;5.814;2022-09-09T09:42:57;16.40;;;2.00;;
60243;SDS011;46106;51.468;5.814;2022-09-09T09:47:58;22.25;;;2.25;;
60243;SDS011;46106;51.468;5.814;2022-09-09T09:50:24;24.75;;;3.35;;
60243;SDS011;46106;51.468;5.814;2022-09-09T09:53:01;15.05;;;2.50;;
60243;SDS011;46106;51.468;5.814;2022-09-09T09:55:33;13.85;;;2.00;;
60243;SDS011;46106;51.468;5.814;2022-09-09T09:58:13;28.20;;;3.30;;
60243;SDS011;46106;51.468;5.814;2022-09-09T10:00:50;16.60;;;2.10;;
60243;SDS011;46106;51.468;5.814;2022-09-09T10:03:21;17.63;;;2.85;;
60243;SDS011;46106;51.468;5.814;2022-09-09T10:05:49;16.35;;;2.13;;
60243;SDS011;46106;51.468;5.814;2022-09-09T10:08:19;16.42;;;2.63;;
60243;SDS011;46106;51.468;5.814;2022-09-09T10:19:18;17.55;;;2.97;;
60243;SDS011;46106;51.468;5.814;2022-09-09T10:21:56;19.67;;;2.15;;
60243;SDS011;46106;51.468;5.814;2022-09-09T10:33:34;19.02;;;2.45;;
60243;SDS011;46106;51.468;5.814;2022-09-09T10:36:13;21.80;;;2.55;;
60243;SDS011;46106;51.468;5.814;2022-09-09T10:44:44;15.02;;;2.10;;
60243;SDS011;46106;51.468;5.814;2022-09-09T10:55:09;26.88;;;3.78;;
60243;SDS011;46106;51.468;5.814;2022-09-09T10:57:44;15.75;;;3.95;;
60243;SDS011;46106;51.468;5.814;2022-09-09T11:02:51;21.67;;;3.75;;
60243;SDS011;46106;51.468;5.814;2022-09-09T11:05:21;20.80;;;3.00;;
60243;SDS011;46106;51.468;5.814;2022-09-09T11:07:58;20.70;;;2.97;;
60243;SDS011;46106;51.468;5.814;2022-09-09T11:10:34;19.02;;;2.92;;
60243;SDS011;46106;51.468;5.814;2022-09-09T11:13:49;19.13;;;3.20;;
60243;SDS011;46106;51.468;5.814;2022-09-09T11:19:26;18.13;;;3.83;;
60243;SDS011;46106;51.468;5.814;2022-09-09T11:22:06;24.95;;;5.07;;
60243;SDS011;46106;51.468;5.814;2022-09-09T11:24:44;31.02;;;6.38;;
60243;SDS011;46106;51.468;5.814;2022-09-09T11:27:29;25.30;;;6.68;;
60243;SDS011;46106;51.468;5.814;2022-09-09T11:41:06;33.85;;;6.93;;
60243;SDS011;46106;51.468;5.814;2022-09-09T11:43:40;29.48;;;5.68;;
60243;SDS011;46106;51.468;5.814;2022-09-09T11:46:10;26.13;;;6.72;;
60243;SDS011;46106;51.468;5.814;2022-09-09T11:48:40;28.23;;;7.10;;
60243;SDS011;46106;51.468;5.814;2022-09-09T11:56:41;29.98;;;6.50;;
60243;SDS011;46106;51.468;5.814;2022-09-09T12:01:50;36.63;;;8.23;;
60243;SDS011;46106;51.468;5.814;2022-09-09T12:04:34;31.88;;;8.15;;
60243;SDS011;46106;51.468;5.814;2022-09-09T12:17:45;35.97;;;11.05;;
60243;SDS011;46106;51.468;5.814;2022-09-09T12:31:12;27.40;;;8.20;;
60243;SDS011;46106;51.468;5.814;2022-09-09T12:33:46;29.38;;;8.90;;
60243;SDS011;46106;51.468;5.814;2022-09-09T12:36:15;40.88;;;9.80;;
60243;SDS011;46106;51.468;5.814;2022-09-09T12:38:44;29.73;;;9.27;;
60243;SDS011;46106;51.468;5.814;2022-09-09T12:41:24;31.13;;;9.75;;
60243;SDS011;46106;51.468;5.814;2022-09-09T12:44:03;35.65;;;9.35;;
60243;SDS011;46106;51.468;5.814;2022-09-09T12:46:43;26.33;;;8.68;;
60243;SDS011;46106;51.468;5.814;2022-09-09T12:49:35;23.70;;;8.10;;
60243;SDS011;46106;51.468;5.814;2022-09-09T12:52:06;33.53;;;8.60;;
60243;SDS011;46106;51.468;5.814;2022-09-09T12:54:43;23.88;;;7.90;;
60243;SDS011;46106;51.468;5.814;2022-09-09T12:57:12;30.95;;;8.73;;
60243;SDS011;46106;51.468;5.814;2022-09-09T12:59:45;29.13;;;8.68;;
60243;SDS011;46106;51.468;5.814;2022-09-09T13:02:18;32.25;;;8.95;;
60243;SDS011;46106;51.468;5.814;2022-09-09T13:04:49;27.88;;;7.13;;
60243;SDS011;46106;51.468;5.814;2022-09-09T13:07:18;21.75;;;5.78;;
60243;SDS011;46106;51.468;5.814;2022-09-09T13:09:47;22.40;;;5.80;;
60243;SDS011;46106;51.468;5.814;2022-09-09T13:12:15;23.55;;;4.95;;
60243;SDS011;46106;51.468;5.814;2022-09-09T13:14:47;24.92;;;5.00;;
60243;SDS011;46106;51.468;5.814;2022-09-09T13:17:20;23.42;;;4.13;;
60243;SDS011;46106;51.468;5.814;2022-09-09T13:19:54;17.45;;;3.92;;
60243;SDS011;46106;51.468;5.814;2022-09-09T13:24:58;19.05;;;4.70;;
60243;SDS011;46106;51.468;5.814;2022-09-09T13:27:35;26.55;;;4.68;;
60243;SDS011;46106;51.468;5.814;2022-09-09T13:38:17;19.13;;;3.45;;
60243;SDS011;46106;51.468;5.814;2022-09-09T13:41:07;17.55;;;4.05;;
60243;SDS011;46106;51.468;5.814;2022-09-09T13:43:37;12.13;;;2.80;;
60243;SDS011;46106;51.468;5.814;2022-09-09T13:49:01;14.35;;;2.70;;
60243;SDS011;46106;51.468;5.814;2022-09-09T13:51:45;21.38;;;3.38;;
60243;SDS011;46106;51.468;5.814;2022-09-09T13:54:13;23.05;;;3.88;;
60243;SDS011;46106;51.468;5.814;2022-09-09T13:56:40;18.35;;;3.03;;
60243;SDS011;46106;51.468;5.814;2022-09-09T13:59:15;21.75;;;2.60;;
60243;SDS011;46106;51.468;5.814;2022-09-09T14:01:45;13.20;;;3.05;;
60243;SDS011;46106;51.468;5.814;2022-09-09T14:04:11;11.55;;;2.97;;
60243;SDS011;46106;51.468;5.814;2022-09-09T14:06:42;15.82;;;3.88;;
60243;SDS011;46106;51.468;5.814;2022-09-09T14:09:12;22.23;;;3.47;;
60243;SDS011;46106;51.468;5.814;2022-09-09T14:11:44;18.45;;;2.80;;
60243;SDS011;46106;51.468;5.814;2022-09-09T14:14:13;24.35;;;3.33;;
60243;SDS011;46106;51.468;5.814;2022-09-09T14:16:38;18.15;;;3.25;;
60243;SDS011;46106;51.468;5.814;2022-09-09T14:19:08;12.48;;;2.30;;
60243;SDS011;46106;51.468;5.814;2022-09-09T14:21:34;16.58;;;2.15;;
60243;SDS011;46106;51.468;5.814;2022-09-09T14:24:04;15.50;;;2.22;;
60243;SDS011;46106;51.468;5.814;2022-09-09T14:26:34;9.75;;;2.17;;
60243;SDS011;46106;51.468;5.814;2022-09-09T14:28:59;9.20;;;2.10;;
60243;SDS011;46106;51.468;5.814;2022-09-09T14:31:26;15.15;;;2.35;;
60243;SDS011;46106;51.468;5.814;2022-09-09T14:33:52;9.02;;;1.98;;
60243;SDS011;46106;51.468;5.814;2022-09-09T14:36:18;14.45;;;2.60;;
60243;SDS011;46106;51.468;5.814;2022-09-09T14:38:49;11.48;;;2.95;;
60243;SDS011;46106;51.468;5.814;2022-09-09T14:41:16;12.63;;;2.15;;
60243;SDS011;46106;51.468;5.814;2022-09-09T14:43:44;22.42;;;2.40;;
60243;SDS011;46106;51.468;5.814;2022-09-09T14:46:11;20.00;;;2.60;;
60243;SDS011;46106;51.468;5.814;2022-09-09T14:48:39;9.98;;;2.20;;
60243;SDS011;46106;51.468;5.814;2022-09-09T14:51:08;15.05;;;2.25;;
60243;SDS011;46106;51.468;5.814;2022-09-09T14:53:51;14.30;;;2.15;;
60243;SDS011;46106;51.468;5.814;2022-09-09T14:56:20;8.80;;;2.15;;
60243;SDS011;46106;51.468;5.814;2022-09-09T14:58:48;15.73;;;2.50;;
60243;SDS011;46106;51.468;5.814;2022-09-09T15:01:17;20.90;;;2.58;;
60243;SDS011;46106;51.468;5.814;2022-09-09T15:03:49;21.25;;;3.10;;
60243;SDS011;46106;51.468;5.814;2022-09-09T15:06:24;10.48;;;2.30;;
60243;SDS011;46106;51.468;5.814;2022-09-09T15:08:56;15.73;;;2.88;;
60243;SDS011;46106;51.468;5.814;2022-09-09T15:11:29;15.05;;;2.88;;
60243;SDS011;46106;51.468;5.814;2022-09-09T15:14:03;14.95;;;2.75;;
60243;SDS011;46106;51.468;5.814;2022-09-09T15:16:30;26.20;;;4.40;;
60243;SDS011;46106;51.468;5.814;2022-09-09T15:19:00;22.67;;;3.78;;
60243;SDS011;46106;51.468;5.814;2022-09-09T15:21:28;15.45;;;4.55;;
60243;SDS011;46106;51.468;5.814;2022-09-09T15:23:56;10.70;;;2.50;;
60243;SDS011;46106;51.468;5.814;2022-09-09T15:26:23;12.13;;;2.50;;
60243;SDS011;46106;51.468;5.814;2022-09-09T15:28:54;9.43;;;2.40;;
60243;SDS011;46106;51.468;5.814;2022-09-09T15:31:24;9.52;;;2.28;;
60243;SDS011;46106;51.468;5.814;2022-09-09T15:33:59;11.82;;;2.22;;
60243;SDS011;46106;51.468;5.814;2022-09-09T15:36:32;17.75;;;4.00;;
60243;SDS011;46106;51.468;5.814;2022-09-09T15:39:00;18.83;;;2.63;;
60243;SDS011;46106;51.468;5.814;2022-09-09T15:41:28;12.73;;;2.15;;
60243;SDS011;46106;51.468;5.814;2022-09-09T15:43:54;13.88;;;2.22;;
60243;SDS011;46106;51.468;5.814;2022-09-09T15:49:10;9.50;;;1.90;;
60243;SDS011;46106;51.468;5.814;2022-09-09T15:51:41;14.57;;;2.20;;
60243;SDS011;46106;51.468;5.814;2022-09-09T15:54:15;13.60;;;2.20;;
60243;SDS011;46106;51.468;5.814;2022-09-09T15:56:47;11.77;;;1.77;;
60243;SDS011;46106;51.468;5.814;2022-09-09T15:59:23;11.65;;;1.83;;
60243;SDS011;46106;51.468;5.814;2022-09-09T16:01:56;15.35;;;2.42;;
60243;SDS011;46106;51.468;5.814;2022-09-09T16:04:26;10.73;;;2.50;;
60243;SDS011;46106;51.468;5.814;2022-09-09T16:07:00;9.02;;;2.78;;
60243;SDS011;46106;51.468;5.814;2022-09-09T16:09:28;8.80;;;1.88;;
60243;SDS011;46106;51.468;5.814;2022-09-09T16:11:59;9.75;;;2.00;;
60243;SDS011;46106;51.468;5.814;2022-09-09T16:14:35;10.30;;;2.38;;
60243;SDS011;46106;51.468;5.814;2022-09-09T16:17:02;10.38;;;2.53;;
60243;SDS011;46106;51.468;5.814;2022-09-09T16:19:29;6.05;;;2.00;;
60243;SDS011;46106;51.468;5.814;2022-09-09T16:21:54;10.05;;;2.30;;
60243;SDS011;46106;51.468;5.814;2022-09-09T16:24:21;10.63;;;2.65;;
60243;SDS011;46106;51.468;5.814;2022-09-09T16:26:53;11.33;;;3.10;;
60243;SDS011;46106;51.468;5.814;2022-09-09T16:29:27;9.13;;;1.98;;
60243;SDS011;46106;51.468;5.814;2022-09-09T16:31:55;12.10;;;2.40;;
60243;SDS011;46106;51.468;5.814;2022-09-09T16:34:23;16.02;;;3.35;;
60243;SDS011;46106;51.468;5.814;2022-09-09T16:36:50;6.97;;;2.03;;
60243;SDS011;46106;51.468;5.814;2022-09-09T16:39:19;10.13;;;2.00;;
60243;SDS011;46106;51.468;5.814;2022-09-09T16:41:51;10.57;;;2.13;;
60243;SDS011;46106;51.468;5.814;2022-09-09T16:44:18;9.68;;;2.00;;
60243;SDS011;46106;51.468;5.814;2022-09-09T16:46:46;8.95;;;1.70;;
60243;SDS011;46106;51.468;5.814;2022-09-09T16:49:14;10.00;;;1.98;;
60243;SDS011;46106;51.468;5.814;2022-09-09T16:51:43;6.97;;;1.85;;
60243;SDS011;46106;51.468;5.814;2022-09-09T16:54:16;12.48;;;2.88;;
60243;SDS011;46106;51.468;5.814;2022-09-09T16:56:45;7.07;;;2.03;;
60243;SDS011;46106;51.468;5.814;2022-09-09T16:59:20;13.57;;;2.65;;
60243;SDS011;46106;51.468;5.814;2022-09-09T17:01:47;9.85;;;2.22;;
60243;SDS011;46106;51.468;5.814;2022-09-09T17:04:23;9.88;;;2.03;;
60243;SDS011;46106;51.468;5.814;2022-09-09T17:06:52;14.32;;;2.97;;
60243;SDS011;46106;51.468;5.814;2022-09-09T17:09:25;16.50;;;2.00;;
60243;SDS011;46106;51.468;5.814;2022-09-09T17:11:57;10.93;;;2.30;;
60243;SDS011;46106;51.468;5.814;2022-09-09T17:14:23;13.90;;;4.03;;
60243;SDS011;46106;51.468;5.814;2022-09-09T17:16:49;7.20;;;1.88;;
60243;SDS011;46106;51.468;5.814;2022-09-09T17:19:24;8.52;;;1.73;;
60243;SDS011;46106;51.468;5.814;2022-09-09T17:21:51;12.25;;;1.80;;
60243;SDS011;46106;51.468;5.814;2022-09-09T17:24:24;8.75;;;2.10;;
60243;SDS011;46106;51.468;5.814;2022-09-09T17:26:59;10.02;;;1.98;;
60243;SDS011;46106;51.468;5.814;2022-09-09T17:29:27;8.35;;;2.25;;
60243;SDS011;46106;51.468;5.814;2022-09-09T17:31:55;11.95;;;2.35;;
60243;SDS011;46106;51.468;5.814;2022-09-09T17:34:29;5.28;;;1.83;;
60243;SDS011;46106;51.468;5.814;2022-09-09T17:36:56;5.20;;;1.83;;
60243;SDS011;46106;51.468;5.814;2022-09-09T17:39:21;15.43;;;1.92;;
60243;SDS011;46106;51.468;5.814;2022-09-09T17:41:47;3.95;;;1.60;;
60243;SDS011;46106;51.468;5.814;2022-09-09T17:44:13;3.72;;;2.20;;
60243;SDS011;46106;51.468;5.814;2022-09-09T17:46:40;3.33;;;1.98;;
60243;SDS011;46106;51.468;5.814;2022-09-09T17:49:11;6.82;;;2.63;;
60243;SDS011;46106;51.468;5.814;2022-09-09T17:51:41;7.43;;;2.50;;
60243;SDS011;46106;51.468;5.814;2022-09-09T17:54:10;8.10;;;2.67;;
60243;SDS011;46106;51.468;5.814;2022-09-09T17:56:43;10.55;;;2.50;;
60243;SDS011;46106;51.468;5.814;2022-09-09T17:59:14;6.28;;;3.00;;
60243;SDS011;46106;51.468;5.814;2022-09-09T18:01:46;4.50;;;2.67;;
60243;SDS011;46106;51.468;5.814;2022-09-09T18:04:24;14.00;;;3.20;;
60243;SDS011;46106;51.468;5.814;2022-09-09T18:06:51;6.53;;;3.75;;